createdAt,value
2018-12-09T00:01:34.772Z,6.23
2018-12-09T00:04:03.073Z,5.43
2018-12-09T00:06:31.356Z,6.27
2018-12-09T00:08:59.704Z,7.00
2018-12-09T00:11:28.010Z,5.47
2018-12-09T00:13:56.251Z,4.27
2018-12-09T00:16:24.507Z,4.77
2018-12-09T00:18:52.736Z,4.83
2018-12-09T00:21:21.048Z,4.50
2018-12-09T00:23:49.267Z,4.27
2018-12-09T00:26:17.573Z,4.60
2018-12-09T00:28:45.864Z,4.60
2018-12-09T00:31:14.112Z,3.30
2018-12-09T00:33:42.483Z,4.97
2018-12-09T00:36:11.116Z,3.60
2018-12-09T00:38:39.454Z,3.13
2018-12-09T00:41:07.710Z,4.93
2018-12-09T00:43:36.007Z,3.63
2018-12-09T00:46:04.252Z,3.80
2018-12-09T00:48:32.848Z,4.10
2018-12-09T00:51:01.304Z,4.80
2018-12-09T00:53:29.609Z,4.60
2018-12-09T00:55:58.115Z,4.70
2018-12-09T00:58:26.427Z,5.17
2018-12-09T01:00:54.711Z,4.93
2018-12-09T01:03:23.038Z,5.30
2018-12-09T01:05:51.408Z,6.10
2018-12-09T01:08:19.674Z,5.00
2018-12-09T01:10:47.915Z,6.17
2018-12-09T01:13:16.259Z,5.03
2018-12-09T01:15:44.498Z,5.00
2018-12-09T01:18:12.738Z,5.97
2018-12-09T01:20:41.043Z,5.00
2018-12-09T01:23:09.312Z,5.50
2018-12-09T01:25:37.572Z,5.10
2018-12-09T01:28:05.908Z,5.73
2018-12-09T01:30:34.461Z,4.50
2018-12-09T01:33:02.843Z,5.70
2018-12-09T01:35:31.159Z,5.60
2018-12-09T01:37:59.404Z,6.03
2018-12-09T01:40:29.651Z,5.03
2018-12-09T01:42:57.968Z,5.23
2018-12-09T01:45:26.387Z,4.40
2018-12-09T01:47:54.637Z,3.40
2018-12-09T01:50:22.867Z,4.20
2018-12-09T01:52:51.437Z,4.97
2018-12-09T01:55:19.704Z,4.17
2018-12-09T01:57:47.962Z,5.30
2018-12-09T02:00:16.317Z,5.37
2018-12-09T02:02:44.579Z,5.30
2018-12-09T02:05:12.911Z,5.70
2018-12-09T02:07:41.437Z,5.57
2018-12-09T02:10:10.424Z,5.83
2018-12-09T02:12:38.701Z,8.00
2018-12-09T02:15:06.999Z,6.30
2018-12-09T02:17:35.335Z,5.70
2018-12-09T02:20:04.318Z,5.80
2018-12-09T02:22:32.555Z,5.60
2018-12-09T02:25:00.908Z,5.70
2018-12-09T02:27:29.163Z,5.60
2018-12-09T02:29:57.460Z,6.33
2018-12-09T02:32:26.351Z,5.60
2018-12-09T02:34:54.677Z,7.17
2018-12-09T02:37:23.064Z,6.33
2018-12-09T02:39:51.440Z,5.60
2018-12-09T02:42:19.736Z,6.10
2018-12-09T02:44:48.130Z,5.23
2018-12-09T02:47:16.355Z,5.47
2018-12-09T02:49:44.678Z,5.47
2018-12-09T02:52:12.953Z,6.60
2018-12-09T02:54:41.272Z,5.80
2018-12-09T02:57:09.546Z,6.50
2018-12-09T02:59:38.132Z,5.53
2018-12-09T03:02:06.586Z,5.30
2018-12-09T03:04:34.927Z,6.70
2018-12-09T03:07:03.268Z,5.50
2018-12-09T03:09:31.551Z,5.57
2018-12-09T03:11:59.842Z,5.87
2018-12-09T03:14:28.657Z,7.37
2018-12-09T03:16:57.011Z,6.47
2018-12-09T03:19:25.298Z,5.40
2018-12-09T03:21:53.727Z,5.80
2018-12-09T03:24:22.024Z,5.93
2018-12-09T03:26:50.520Z,4.70
2018-12-09T03:29:18.768Z,5.80
2018-12-09T03:31:47.115Z,6.47
2018-12-09T03:34:15.450Z,5.60
2018-12-09T03:36:43.763Z,5.13
2018-12-09T03:39:12.080Z,7.20
2018-12-09T03:41:40.428Z,5.50
2018-12-09T03:44:09.003Z,4.30
2018-12-09T03:46:37.377Z,5.50
2018-12-09T03:49:06.786Z,4.93
2018-12-09T03:51:35.106Z,5.03
2018-12-09T03:54:03.405Z,4.50
2018-12-09T03:56:31.648Z,4.73
2018-12-09T03:58:59.955Z,5.47
2018-12-09T04:01:28.325Z,5.03
2018-12-09T04:03:56.581Z,5.17
2018-12-09T04:06:24.809Z,4.90
2018-12-09T04:08:53.147Z,4.57
2018-12-09T04:11:21.478Z,4.87
2018-12-09T04:13:51.905Z,5.63
2018-12-09T04:16:20.266Z,4.03
2018-12-09T04:18:48.629Z,5.40
2018-12-09T04:21:17.039Z,4.87
2018-12-09T04:23:45.851Z,5.53
2018-12-09T04:26:14.097Z,5.60
2018-12-09T04:28:42.444Z,4.60
2018-12-09T04:31:10.786Z,5.50
2018-12-09T04:33:39.122Z,5.80
2018-12-09T04:36:07.384Z,3.97
2018-12-09T04:38:35.860Z,4.70
2018-12-09T04:41:04.276Z,6.33
2018-12-09T04:43:32.648Z,5.50
2018-12-09T04:46:01.098Z,4.60
2018-12-09T04:48:29.492Z,4.83
2018-12-09T04:50:57.804Z,3.93
2018-12-09T04:53:26.083Z,4.93
2018-12-09T04:55:55.482Z,4.20
2018-12-09T04:58:23.924Z,4.93
2018-12-09T05:00:53.942Z,4.77
2018-12-09T05:03:22.548Z,4.90
2018-12-09T05:05:50.792Z,4.30
2018-12-09T05:08:20.092Z,4.67
2018-12-09T05:10:48.430Z,4.17
2018-12-09T05:13:16.668Z,4.50
2018-12-09T05:15:44.963Z,4.37
2018-12-09T05:18:13.191Z,6.63
2018-12-09T05:20:41.515Z,5.70
2018-12-09T05:23:09.903Z,4.37
2018-12-09T05:25:38.179Z,4.77
2018-12-09T05:28:06.459Z,5.20
2018-12-09T05:30:34.696Z,4.77
2018-12-09T05:33:03.240Z,5.17
2018-12-09T05:35:31.490Z,4.13
2018-12-09T05:37:59.784Z,6.10
2018-12-09T05:40:27.994Z,5.30
2018-12-09T05:42:58.334Z,5.13
2018-12-09T05:45:26.855Z,4.00
2018-12-09T05:47:55.183Z,4.80
2018-12-09T05:50:24.527Z,4.80
2018-12-09T05:52:52.815Z,5.70
2018-12-09T05:55:21.102Z,5.40
2018-12-09T05:57:49.406Z,5.17
2018-12-09T06:00:17.777Z,5.17
2018-12-09T06:02:54.192Z,5.53
2018-12-09T06:05:22.666Z,5.40
2018-12-09T06:07:51.398Z,4.83
2018-12-09T06:10:19.817Z,5.23
2018-12-09T06:12:48.275Z,5.60
2018-12-09T06:15:16.644Z,6.83
2018-12-09T06:17:44.967Z,5.03
2018-12-09T06:20:13.540Z,5.67
2018-12-09T06:22:41.950Z,6.07
2018-12-09T06:25:11.319Z,5.00
2018-12-09T06:27:39.651Z,5.03
2018-12-09T06:30:08.350Z,6.53
2018-12-09T06:32:36.582Z,6.03
2018-12-09T06:35:05.134Z,6.93
2018-12-09T06:37:33.481Z,5.50
2018-12-09T06:40:01.935Z,4.60
2018-12-09T06:42:30.374Z,5.13
2018-12-09T06:44:58.715Z,4.93
2018-12-09T06:47:26.971Z,5.13
2018-12-09T06:49:55.231Z,5.80
2018-12-09T06:52:23.458Z,5.73
2018-12-09T06:54:51.784Z,5.30
2018-12-09T06:57:20.056Z,5.30
2018-12-09T06:59:50.256Z,5.50
2018-12-09T07:02:18.816Z,5.13
2018-12-09T07:04:47.052Z,5.10
2018-12-09T07:07:15.319Z,6.03
2018-12-09T07:09:43.742Z,5.30
2018-12-09T07:12:12.015Z,6.13
2018-12-09T07:14:40.271Z,6.60
2018-12-09T07:17:09.574Z,6.20
2018-12-09T07:19:38.144Z,5.10
2018-12-09T07:22:06.482Z,5.30
2018-12-09T07:24:34.760Z,5.47
2018-12-09T07:27:03.160Z,7.50
2018-12-09T07:29:31.462Z,5.97
2018-12-09T07:31:59.757Z,6.13
2018-12-09T07:34:28.000Z,6.20
2018-12-09T07:36:56.268Z,6.37
2018-12-09T07:39:24.451Z,5.70
2018-12-09T07:41:52.697Z,5.67
2018-12-09T07:44:20.944Z,5.77
2018-12-09T07:46:49.193Z,5.80
2018-12-09T07:49:17.516Z,6.93
2018-12-09T07:51:45.867Z,6.60
2018-12-09T07:54:14.087Z,6.83
2018-12-09T07:56:42.445Z,6.20
2018-12-09T07:59:11.762Z,8.23
2018-12-09T08:01:40.021Z,6.13
2018-12-09T08:04:08.329Z,6.43
2018-12-09T08:06:36.660Z,6.93
2018-12-09T08:09:05.464Z,6.97
2018-12-09T08:11:33.790Z,6.27
2018-12-09T08:14:02.403Z,6.87
2018-12-09T08:16:31.779Z,6.73
2018-12-09T08:19:00.288Z,4.93
2018-12-09T08:21:28.556Z,6.00
2018-12-09T08:23:56.929Z,6.57
2018-12-09T08:26:25.207Z,5.90
2018-12-09T08:28:53.495Z,5.17
2018-12-09T08:31:21.733Z,5.43
2018-12-09T08:33:50.074Z,6.67
2018-12-09T08:36:18.320Z,6.27
2018-12-09T08:38:46.579Z,4.90
2018-12-09T08:41:14.768Z,5.83
2018-12-09T08:43:43.158Z,6.27
2018-12-09T08:46:11.357Z,5.97
2018-12-09T08:48:39.665Z,7.20
2018-12-09T08:51:08.028Z,5.33
2018-12-09T08:53:36.264Z,6.67
2018-12-09T08:56:04.537Z,5.97
2018-12-09T08:58:32.787Z,6.87
2018-12-09T09:01:02.855Z,6.43
2018-12-09T09:03:31.105Z,6.13
2018-12-09T09:05:59.312Z,5.90
2018-12-09T09:08:27.638Z,5.30
2018-12-09T09:10:55.932Z,4.90
2018-12-09T09:13:24.167Z,5.37
2018-12-09T09:15:52.412Z,4.53
2018-12-09T09:18:20.639Z,4.80
2018-12-09T09:20:48.911Z,4.30
2018-12-09T09:23:17.150Z,4.50
2018-12-09T09:25:45.422Z,4.03
2018-12-09T09:28:13.660Z,4.50
2018-12-09T09:30:41.944Z,4.10
2018-12-09T09:33:10.349Z,3.10
2018-12-09T09:35:38.632Z,2.67
2018-12-09T09:38:06.891Z,3.80
2018-12-09T09:40:35.111Z,3.30
2018-12-09T09:43:03.392Z,2.53
2018-12-09T09:45:31.885Z,3.40
2018-12-09T09:48:00.117Z,2.67
2018-12-09T09:50:28.640Z,2.70
2018-12-09T09:52:57.019Z,2.83
2018-12-09T09:55:25.203Z,2.23
2018-12-09T09:57:53.542Z,3.13
2018-12-09T10:00:21.841Z,2.97
2018-12-09T10:02:50.193Z,2.97
2018-12-09T10:05:18.533Z,2.90
2018-12-09T10:07:46.963Z,3.33
2018-12-09T10:10:15.758Z,2.80
2018-12-09T10:12:44.074Z,3.20
2018-12-09T10:15:12.429Z,3.00
2018-12-09T10:17:40.916Z,4.03
2018-12-09T10:20:09.460Z,3.53
2018-12-09T10:22:37.723Z,3.47
2018-12-09T10:25:06.047Z,3.30
2018-12-09T10:27:35.225Z,2.40
2018-12-09T10:30:05.240Z,4.10
2018-12-09T10:32:33.433Z,3.23
2018-12-09T10:35:01.755Z,3.40
2018-12-09T10:37:30.041Z,3.20
2018-12-09T10:39:58.580Z,4.60
2018-12-09T10:42:26.891Z,4.40
2018-12-09T10:44:55.147Z,3.33
2018-12-09T10:47:23.526Z,3.40
2018-12-09T10:49:51.885Z,3.00
2018-12-09T10:52:20.269Z,2.97
2018-12-09T10:54:48.565Z,2.90
2018-12-09T10:57:16.803Z,3.57
2018-12-09T10:59:45.070Z,4.10
2018-12-09T11:02:18.824Z,3.20
2018-12-09T11:04:47.174Z,3.10
2018-12-09T11:07:15.501Z,2.87
2018-12-09T11:09:43.753Z,2.83
2018-12-09T11:12:12.003Z,2.73
2018-12-09T11:14:40.223Z,2.77
2018-12-09T11:17:08.452Z,2.73
2018-12-09T11:19:36.771Z,3.27
2018-12-09T11:22:05.038Z,3.17
2018-12-09T11:24:33.271Z,3.10
2018-12-09T11:27:01.550Z,3.13
2018-12-09T11:29:29.813Z,3.03
2018-12-09T11:31:58.156Z,3.70
2018-12-09T11:34:26.593Z,3.70
2018-12-09T11:36:54.973Z,3.70
2018-12-09T11:39:23.197Z,4.03
2018-12-09T11:41:51.459Z,3.90
2018-12-09T11:44:19.749Z,4.10
2018-12-09T11:46:48.148Z,3.60
2018-12-09T11:49:16.550Z,3.90
2018-12-09T11:51:44.800Z,3.50
2018-12-09T11:54:13.149Z,3.87
2018-12-09T11:56:41.468Z,2.77
2018-12-09T11:59:09.738Z,2.70
2018-12-09T12:01:38.000Z,3.37
2018-12-09T12:04:06.267Z,3.10
2018-12-09T12:06:34.595Z,3.30
2018-12-09T12:09:03.969Z,3.13
2018-12-09T12:11:32.325Z,3.33
2018-12-09T12:14:00.643Z,4.37
2018-12-09T12:16:28.877Z,3.73
2018-12-09T12:18:57.171Z,3.53
2018-12-09T12:21:25.425Z,4.00
2018-12-09T12:23:53.705Z,3.33
2018-12-09T12:26:21.981Z,3.77
2018-12-09T12:28:50.499Z,3.83
2018-12-09T12:31:18.759Z,3.10
2018-12-09T12:33:47.008Z,3.50
2018-12-09T12:36:15.231Z,3.47
2018-12-09T12:38:43.463Z,3.83
2018-12-09T12:41:11.712Z,3.23
2018-12-09T12:43:40.028Z,3.90
2018-12-09T12:46:08.327Z,3.10
2018-12-09T12:48:36.632Z,3.23
2018-12-09T12:51:05.075Z,2.70
2018-12-09T12:53:33.347Z,3.30
2018-12-09T12:56:01.641Z,3.50
2018-12-09T12:58:29.881Z,3.57
2018-12-09T13:00:58.211Z,3.53
2018-12-09T13:03:26.551Z,3.90
2018-12-09T13:05:54.932Z,3.80
2018-12-09T13:08:23.671Z,4.23
2018-12-09T13:10:52.135Z,3.47
2018-12-09T13:13:20.401Z,3.47
2018-12-09T13:15:48.700Z,4.23
2018-12-09T13:18:16.935Z,3.40
2018-12-09T13:20:45.281Z,5.00
2018-12-09T13:23:13.533Z,4.00
2018-12-09T13:25:42.115Z,5.83
2018-12-09T13:28:10.351Z,3.83
2018-12-09T13:30:38.660Z,4.73
2018-12-09T13:33:07.012Z,3.50
2018-12-09T13:35:35.267Z,4.70
2018-12-09T13:38:03.594Z,3.73
2018-12-09T13:40:32.672Z,3.20
2018-12-09T13:43:00.954Z,3.73
2018-12-09T13:45:29.280Z,3.47
2018-12-09T13:47:57.945Z,4.33
2018-12-09T13:50:26.410Z,3.37
2018-12-09T13:52:54.694Z,3.20
2018-12-09T13:55:22.924Z,3.17
2018-12-09T13:57:51.210Z,4.00
2018-12-09T14:00:19.558Z,4.40
2018-12-09T14:02:47.935Z,4.57
2018-12-09T14:05:16.242Z,4.20
2018-12-09T14:07:44.539Z,4.10
2018-12-09T14:10:13.837Z,3.93
2018-12-09T14:12:42.060Z,3.70
2018-12-09T14:15:10.287Z,4.00
2018-12-09T14:17:38.604Z,3.93
2018-12-09T14:20:07.122Z,4.00
2018-12-09T14:22:35.376Z,3.00
2018-12-09T14:25:05.085Z,3.53
2018-12-09T14:27:33.472Z,3.67
2018-12-09T14:30:01.838Z,3.50
2018-12-09T14:32:30.100Z,3.20
2018-12-09T14:34:58.372Z,5.60
2018-12-09T14:37:26.703Z,4.20
2018-12-09T14:39:54.954Z,4.80
2018-12-09T14:42:23.257Z,4.37
2018-12-09T14:44:51.548Z,4.50
2018-12-09T14:47:19.808Z,4.80
2018-12-09T14:49:48.074Z,3.90
2018-12-09T14:52:16.306Z,4.27
2018-12-09T14:54:44.523Z,4.10
2018-12-09T14:57:12.778Z,4.00
2018-12-09T14:59:41.083Z,5.00
2018-12-09T15:02:09.396Z,4.20
2018-12-09T15:04:37.855Z,4.10
2018-12-09T15:07:06.100Z,4.27
2018-12-09T15:09:34.397Z,4.10
2018-12-09T15:12:02.681Z,4.03
2018-12-09T15:14:30.888Z,5.07
2018-12-09T15:16:59.329Z,5.13
2018-12-09T15:19:27.813Z,4.70
2018-12-09T15:21:56.109Z,5.07
2018-12-09T15:24:24.428Z,4.17
2018-12-09T15:26:52.807Z,4.10
2018-12-09T15:29:21.164Z,4.30
2018-12-09T15:31:49.968Z,5.70
2018-12-09T15:34:18.301Z,4.33
2018-12-09T15:36:46.598Z,3.93
2018-12-09T15:39:15.143Z,5.10
2018-12-09T15:41:43.501Z,4.33
2018-12-09T15:44:11.747Z,3.50
2018-12-09T15:46:40.168Z,3.70
2018-12-09T15:49:08.479Z,3.73
2018-12-09T15:51:36.771Z,5.50
2018-12-09T15:54:05.065Z,3.90
2018-12-09T15:56:33.341Z,3.90
2018-12-09T15:59:01.632Z,3.57
2018-12-09T16:01:29.878Z,3.70
2018-12-09T16:03:58.508Z,4.23
2018-12-09T16:06:26.844Z,3.70
2018-12-09T16:08:55.084Z,3.97
2018-12-09T16:11:23.337Z,5.00
2018-12-09T16:13:51.570Z,7.60
2018-12-09T16:16:19.812Z,5.27
2018-12-09T16:18:48.080Z,5.43
2018-12-09T16:21:16.368Z,5.57
2018-12-09T16:23:44.794Z,4.80
2018-12-09T16:26:13.146Z,4.90
2018-12-09T16:28:41.371Z,4.80
2018-12-09T16:31:09.624Z,4.03
2018-12-09T16:33:37.855Z,4.27
2018-12-09T16:36:06.099Z,5.10
2018-12-09T16:38:34.337Z,5.17
2018-12-09T16:41:02.651Z,4.30
2018-12-09T16:43:30.882Z,5.60
2018-12-09T16:45:59.131Z,4.63
2018-12-09T16:48:27.415Z,4.60
2018-12-09T16:50:55.655Z,4.80
2018-12-09T16:53:23.995Z,5.70
2018-12-09T16:55:52.204Z,4.97
2018-12-09T16:58:20.521Z,5.63
2018-12-09T17:00:49.098Z,5.53
2018-12-09T17:03:17.457Z,5.10
2018-12-09T17:05:45.727Z,5.20
2018-12-09T17:08:13.951Z,5.93
2018-12-09T17:10:42.293Z,5.10
2018-12-09T17:13:10.619Z,5.23
2018-12-09T17:15:38.964Z,5.67
2018-12-09T17:18:07.797Z,5.10
2018-12-09T17:20:36.077Z,5.10
2018-12-09T17:23:04.303Z,5.23
2018-12-09T17:25:32.533Z,5.90
2018-12-09T17:28:01.054Z,5.37
2018-12-09T17:30:29.359Z,5.17
2018-12-09T17:32:57.689Z,4.30
2018-12-09T17:35:26.027Z,3.73
2018-12-09T17:37:54.297Z,5.00
2018-12-09T17:40:22.620Z,4.70
2018-12-09T17:42:50.948Z,5.50
2018-12-09T17:45:19.163Z,4.20
2018-12-09T17:47:47.416Z,5.33
2018-12-09T17:50:15.687Z,4.20
2018-12-09T17:52:43.988Z,4.57
2018-12-09T17:55:12.277Z,5.17
2018-12-09T17:57:40.601Z,5.63
2018-12-09T18:00:09.006Z,4.77
2018-12-09T18:02:37.256Z,4.97
2018-12-09T18:05:05.619Z,5.00
2018-12-09T18:07:33.888Z,4.80
2018-12-09T18:10:02.438Z,4.40
2018-12-09T18:12:30.679Z,5.43
2018-12-09T18:14:58.994Z,4.53
2018-12-09T18:17:27.274Z,5.70
2018-12-09T18:19:56.518Z,5.83
2018-12-09T18:22:24.942Z,4.80
2018-12-09T18:24:53.339Z,5.00
2018-12-09T18:27:21.624Z,5.27
2018-12-09T18:29:49.883Z,5.40
2018-12-09T18:32:18.168Z,5.03
2018-12-09T18:34:46.584Z,5.17
2018-12-09T18:37:14.862Z,5.93
2018-12-09T18:39:43.309Z,4.93
2018-12-09T18:42:11.570Z,5.27
2018-12-09T18:44:39.812Z,5.40
2018-12-09T18:47:08.051Z,5.27
2018-12-09T18:49:36.316Z,4.43
2018-12-09T18:52:05.504Z,4.40
2018-12-09T18:54:33.760Z,5.60
2018-12-09T18:57:02.038Z,5.97
2018-12-09T18:59:30.494Z,5.07
2018-12-09T19:01:58.831Z,5.90
2018-12-09T19:04:27.111Z,5.33
2018-12-09T19:06:55.618Z,6.00
2018-12-09T19:09:23.927Z,5.20
2018-12-09T19:11:52.160Z,5.73
2018-12-09T19:14:20.432Z,5.90
2018-12-09T19:16:48.743Z,5.77
2018-12-09T19:19:17.097Z,4.97
2018-12-09T19:21:45.322Z,5.53
2018-12-09T19:24:14.625Z,5.17
2018-12-09T19:26:43.565Z,5.20
2018-12-09T19:29:12.106Z,5.00
2018-12-09T19:31:40.489Z,4.97
2018-12-09T19:34:08.760Z,5.83
2018-12-09T19:36:36.999Z,6.30
2018-12-09T19:39:06.360Z,6.20
2018-12-09T19:41:34.678Z,5.83
2018-12-09T19:44:02.940Z,5.10
2018-12-09T19:46:31.202Z,5.73
2018-12-09T19:48:59.539Z,6.20
2018-12-09T19:51:27.997Z,5.13
2018-12-09T19:53:56.422Z,5.67
2018-12-09T19:56:24.712Z,5.70
2018-12-09T19:58:53.141Z,5.03
2018-12-09T20:01:21.500Z,5.80
2018-12-09T20:03:49.811Z,6.23
2018-12-09T20:06:18.155Z,6.17
2018-12-09T20:08:46.421Z,6.10
2018-12-09T20:11:14.692Z,5.13
2018-12-09T20:13:43.463Z,5.73
2018-12-09T20:16:11.687Z,6.83
2018-12-09T20:18:39.935Z,5.67
2018-12-09T20:21:08.193Z,6.17
2018-12-09T20:23:36.438Z,5.53
2018-12-09T20:26:04.715Z,6.13
2018-12-09T20:28:32.985Z,6.00
2018-12-09T20:31:01.207Z,5.80
2018-12-09T20:33:29.493Z,5.73
2018-12-09T20:35:57.739Z,6.13
2018-12-09T20:38:25.998Z,5.60
2018-12-09T20:40:54.353Z,6.47
2018-12-09T20:43:22.598Z,7.40
2018-12-09T20:45:50.862Z,6.23
2018-12-09T20:48:19.287Z,5.57
2018-12-09T20:50:47.630Z,5.77
2018-12-09T20:53:16.002Z,6.30
2018-12-09T20:55:44.373Z,5.50
2018-12-09T20:58:12.651Z,5.60
2018-12-09T21:00:40.931Z,5.80
2018-12-09T21:03:09.395Z,5.90
2018-12-09T21:05:37.632Z,5.50
2018-12-09T21:08:05.983Z,5.33
2018-12-09T21:10:34.476Z,5.20
2018-12-09T21:13:02.738Z,5.73
2018-12-09T21:15:31.030Z,5.37
2018-12-09T21:17:59.328Z,5.87
2018-12-09T21:20:27.683Z,5.47
2018-12-09T21:22:55.998Z,6.03
2018-12-09T21:25:24.253Z,5.50
2018-12-09T21:27:52.508Z,6.40
2018-12-09T21:30:20.840Z,6.70
2018-12-09T21:32:49.085Z,6.70
2018-12-09T21:35:17.362Z,4.63
2018-12-09T21:37:45.682Z,4.60
2018-12-09T21:40:13.975Z,4.80
2018-12-09T21:42:42.229Z,4.80
2018-12-09T21:45:10.516Z,4.97
2018-12-09T21:47:38.836Z,4.87
2018-12-09T21:50:07.163Z,5.00
2018-12-09T21:52:35.463Z,5.47
2018-12-09T21:55:04.587Z,4.90
2018-12-09T21:57:32.830Z,5.50
2018-12-09T22:00:01.510Z,4.20
2018-12-09T22:02:30.045Z,4.83
2018-12-09T22:04:58.298Z,5.30
2018-12-09T22:07:26.583Z,4.57
2018-12-09T22:09:54.837Z,6.67
2018-12-09T22:12:23.173Z,5.77
2018-12-09T22:14:51.569Z,5.23
2018-12-09T22:17:19.900Z,4.90
2018-12-09T22:19:48.192Z,4.37
2018-12-09T22:22:16.471Z,5.70
2018-12-09T22:24:44.745Z,5.73
2018-12-09T22:27:12.994Z,5.90
2018-12-09T22:29:41.264Z,5.00
2018-12-09T22:32:09.536Z,5.70
2018-12-09T22:34:37.784Z,4.87
2018-12-09T22:37:06.091Z,4.50
2018-12-09T22:39:34.586Z,4.63
2018-12-09T22:42:02.897Z,4.03
2018-12-09T22:44:31.236Z,5.23
2018-12-09T22:46:59.568Z,4.83
2018-12-09T22:49:27.918Z,5.90
2018-12-09T22:51:56.225Z,5.50
2018-12-09T22:54:24.497Z,4.97
2018-12-09T22:56:52.739Z,5.13
2018-12-09T22:59:21.036Z,6.10
2018-12-09T23:01:55.302Z,7.20
2018-12-09T23:04:23.561Z,6.27
2018-12-09T23:06:53.711Z,6.50
2018-12-09T23:09:21.963Z,6.07
2018-12-09T23:11:50.210Z,5.47
2018-12-09T23:14:18.498Z,6.37
2018-12-09T23:16:46.761Z,6.00
2018-12-09T23:19:15.068Z,5.10
2018-12-09T23:21:43.588Z,5.43
2018-12-09T23:24:11.791Z,6.00
2018-12-09T23:26:40.037Z,6.10
2018-12-09T23:29:08.383Z,5.10
2018-12-09T23:31:36.605Z,7.83
2018-12-09T23:34:04.851Z,6.20
2018-12-09T23:36:33.607Z,5.33
2018-12-09T23:39:01.879Z,5.60
2018-12-09T23:41:30.104Z,5.73
2018-12-09T23:43:58.421Z,5.87
2018-12-09T23:46:26.691Z,5.30
2018-12-09T23:48:54.913Z,5.80
2018-12-09T23:51:23.198Z,4.67
2018-12-09T23:53:51.759Z,6.50
2018-12-09T23:56:20.147Z,4.80
2018-12-09T23:58:48.543Z,5.03
